sensor_id;sensor_type;location;lat;lon;timestamp;P1;durP1;ratioP1;P2;durP2;ratioP2
19278;SDS011;9773;47.062;15.446;2024-02-15T00:01:39;3.43;;;3.13;;
19278;SDS011;9773;47.062;15.446;2024-02-15T00:04:04;5.20;;;3.47;;
19278;SDS011;9773;47.062;15.446;2024-02-15T00:06:31;4.80;;;3.50;;
19278;SDS011;9773;47.062;15.446;2024-02-15T00:08:57;3.90;;;3.40;;
19278;SDS011;9773;47.062;15.446;2024-02-15T00:11:22;3.83;;;3.07;;
19278;SDS011;9773;47.062;15.446;2024-02-15T00:13:48;4.87;;;3.67;;
19278;SDS011;9773;47.062;15.446;2024-02-15T00:16:14;2.97;;;2.73;;
19278;SDS011;9773;47.062;15.446;2024-02-15T00:18:40;4.80;;;3.27;;
19278;SDS011;9773;47.062;15.446;2024-02-15T00:21:06;3.13;;;2.67;;
19278;SDS011;9773;47.062;15.446;2024-02-15T00:23:32;3.57;;;3.20;;
19278;SDS011;9773;47.062;15.446;2024-02-15T00:25:58;4.17;;;2.60;;
19278;SDS011;9773;47.062;15.446;2024-02-15T00:28:24;2.73;;;2.53;;
19278;SDS011;9773;47.062;15.446;2024-02-15T00:30:51;3.47;;;3.03;;
19278;SDS011;9773;47.062;15.446;2024-02-15T00:33:18;3.27;;;2.97;;
19278;SDS011;9773;47.062;15.446;2024-02-15T00:35:44;3.10;;;2.90;;
19278;SDS011;9773;47.062;15.446;2024-02-15T00:38:09;4.63;;;3.10;;
19278;SDS011;9773;47.062;15.446;2024-02-15T00:40:35;4.10;;;3.00;;
19278;SDS011;9773;47.062;15.446;2024-02-15T00:43:02;4.83;;;2.53;;
19278;SDS011;9773;47.062;15.446;2024-02-15T00:45:28;3.03;;;2.63;;
19278;SDS011;9773;47.062;15.446;2024-02-15T00:47:54;2.90;;;2.60;;
19278;SDS011;9773;47.062;15.446;2024-02-15T00:50:22;3.77;;;2.73;;
19278;SDS011;9773;47.062;15.446;2024-02-15T00:52:48;2.97;;;2.77;;
19278;SDS011;9773;47.062;15.446;2024-02-15T00:55:34;3.57;;;2.83;;
19278;SDS011;9773;47.062;15.446;2024-02-15T00:58:00;3.97;;;3.10;;
19278;SDS011;9773;47.062;15.446;2024-02-15T01:00:26;2.97;;;2.70;;
19278;SDS011;9773;47.062;15.446;2024-02-15T01:02:52;3.10;;;2.87;;
19278;SDS011;9773;47.062;15.446;2024-02-15T01:05:18;2.90;;;2.70;;
19278;SDS011;9773;47.062;15.446;2024-02-15T01:07:45;2.87;;;2.67;;
19278;SDS011;9773;47.062;15.446;2024-02-15T01:10:13;5.50;;;2.73;;
19278;SDS011;9773;47.062;15.446;2024-02-15T01:12:39;2.67;;;2.47;;
19278;SDS011;9773;47.062;15.446;2024-02-15T01:15:05;2.90;;;2.70;;
19278;SDS011;9773;47.062;15.446;2024-02-15T01:17:32;2.80;;;2.60;;
19278;SDS011;9773;47.062;15.446;2024-02-15T01:19:57;2.83;;;2.63;;
19278;SDS011;9773;47.062;15.446;2024-02-15T01:22:25;2.80;;;2.60;;
19278;SDS011;9773;47.062;15.446;2024-02-15T01:24:54;3.20;;;2.90;;
19278;SDS011;9773;47.062;15.446;2024-02-15T01:27:26;4.20;;;2.80;;
19278;SDS011;9773;47.062;15.446;2024-02-15T01:29:59;4.30;;;2.93;;
19278;SDS011;9773;47.062;15.446;2024-02-15T01:32:30;3.20;;;2.50;;
19278;SDS011;9773;47.062;15.446;2024-02-15T01:34:56;3.73;;;2.67;;
19278;SDS011;9773;47.062;15.446;2024-02-15T01:37:22;2.67;;;2.47;;
19278;SDS011;9773;47.062;15.446;2024-02-15T01:39:48;2.60;;;2.43;;
19278;SDS011;9773;47.062;15.446;2024-02-15T01:42:15;3.87;;;2.70;;
19278;SDS011;9773;47.062;15.446;2024-02-15T01:44:41;3.70;;;2.90;;
19278;SDS011;9773;47.062;15.446;2024-02-15T01:47:10;3.13;;;2.53;;
19278;SDS011;9773;47.062;15.446;2024-02-15T01:49:36;3.00;;;2.80;;
19278;SDS011;9773;47.062;15.446;2024-02-15T01:52:02;3.97;;;2.63;;
19278;SDS011;9773;47.062;15.446;2024-02-15T01:54:33;2.90;;;2.40;;
19278;SDS011;9773;47.062;15.446;2024-02-15T01:57:01;2.70;;;2.50;;
19278;SDS011;9773;47.062;15.446;2024-02-15T01:59:28;2.67;;;2.47;;
19278;SDS011;9773;47.062;15.446;2024-02-15T02:01:55;2.80;;;2.47;;
19278;SDS011;9773;47.062;15.446;2024-02-15T02:04:21;3.40;;;2.80;;
19278;SDS011;9773;47.062;15.446;2024-02-15T02:06:47;3.07;;;2.77;;
19278;SDS011;9773;47.062;15.446;2024-02-15T02:09:13;2.73;;;2.53;;
19278;SDS011;9773;47.062;15.446;2024-02-15T02:11:41;2.90;;;2.70;;
19278;SDS011;9773;47.062;15.446;2024-02-15T02:14:09;2.70;;;2.50;;
19278;SDS011;9773;47.062;15.446;2024-02-15T02:16:37;3.43;;;3.13;;
19278;SDS011;9773;47.062;15.446;2024-02-15T02:19:04;2.50;;;2.30;;
19278;SDS011;9773;47.062;15.446;2024-02-15T02:21:34;2.93;;;2.67;;
19278;SDS011;9773;47.062;15.446;2024-02-15T02:24:02;2.77;;;2.57;;
19278;SDS011;9773;47.062;15.446;2024-02-15T02:26:33;3.17;;;2.70;;
19278;SDS011;9773;47.062;15.446;2024-02-15T02:29:05;2.57;;;2.30;;
19278;SDS011;9773;47.062;15.446;2024-02-15T02:31:33;2.63;;;2.43;;
19278;SDS011;9773;47.062;15.446;2024-02-15T02:34:02;5.83;;;3.00;;
19278;SDS011;9773;47.062;15.446;2024-02-15T02:36:28;3.33;;;3.03;;
19278;SDS011;9773;47.062;15.446;2024-02-15T02:38:54;4.10;;;3.27;;
19278;SDS011;9773;47.062;15.446;2024-02-15T02:41:25;4.27;;;3.33;;
19278;SDS011;9773;47.062;15.446;2024-02-15T02:43:51;4.27;;;3.53;;
19278;SDS011;9773;47.062;15.446;2024-02-15T02:46:17;3.80;;;3.50;;
19278;SDS011;9773;47.062;15.446;2024-02-15T02:48:43;3.70;;;3.40;;
19278;SDS011;9773;47.062;15.446;2024-02-15T02:51:08;3.97;;;3.50;;
19278;SDS011;9773;47.062;15.446;2024-02-15T02:53:34;3.50;;;3.20;;
19278;SDS011;9773;47.062;15.446;2024-02-15T02:56:00;4.43;;;4.03;;
19278;SDS011;9773;47.062;15.446;2024-02-15T02:58:27;3.73;;;3.40;;
19278;SDS011;9773;47.062;15.446;2024-02-15T03:00:53;3.63;;;3.20;;
19278;SDS011;9773;47.062;15.446;2024-02-15T03:03:20;3.03;;;2.83;;
19278;SDS011;9773;47.062;15.446;2024-02-15T03:05:48;3.10;;;2.60;;
19278;SDS011;9773;47.062;15.446;2024-02-15T03:08:14;3.40;;;2.70;;
19278;SDS011;9773;47.062;15.446;2024-02-15T03:10:43;5.10;;;2.43;;
19278;SDS011;9773;47.062;15.446;2024-02-15T03:13:08;2.60;;;2.40;;
19278;SDS011;9773;47.062;15.446;2024-02-15T03:15:35;2.83;;;2.63;;
19278;SDS011;9773;47.062;15.446;2024-02-15T03:18:01;2.30;;;2.10;;
19278;SDS011;9773;47.062;15.446;2024-02-15T03:20:32;2.40;;;2.20;;
19278;SDS011;9773;47.062;15.446;2024-02-15T03:22:59;2.17;;;2.07;;
19278;SDS011;9773;47.062;15.446;2024-02-15T03:25:26;2.57;;;2.37;;
19278;SDS011;9773;47.062;15.446;2024-02-15T03:27:57;2.13;;;2.03;;
19278;SDS011;9773;47.062;15.446;2024-02-15T03:30:24;2.97;;;2.70;;
19278;SDS011;9773;47.062;15.446;2024-02-15T03:32:51;3.10;;;2.90;;
19278;SDS011;9773;47.062;15.446;2024-02-15T03:35:17;3.30;;;3.00;;
19278;SDS011;9773;47.062;15.446;2024-02-15T03:37:44;2.97;;;2.77;;
19278;SDS011;9773;47.062;15.446;2024-02-15T03:40:10;3.40;;;3.10;;
19278;SDS011;9773;47.062;15.446;2024-02-15T03:42:36;4.10;;;2.97;;
19278;SDS011;9773;47.062;15.446;2024-02-15T03:45:06;4.33;;;3.20;;
19278;SDS011;9773;47.062;15.446;2024-02-15T03:47:32;3.60;;;3.27;;
19278;SDS011;9773;47.062;15.446;2024-02-15T03:50:01;4.23;;;3.37;;
19278;SDS011;9773;47.062;15.446;2024-02-15T03:52:28;4.73;;;3.97;;
19278;SDS011;9773;47.062;15.446;2024-02-15T03:54:55;3.63;;;3.30;;
19278;SDS011;9773;47.062;15.446;2024-02-15T03:57:35;4.07;;;3.63;;
19278;SDS011;9773;47.062;15.446;2024-02-15T04:00:05;5.20;;;4.13;;
19278;SDS011;9773;47.062;15.446;2024-02-15T04:02:33;6.67;;;4.37;;
19278;SDS011;9773;47.062;15.446;2024-02-15T04:05:00;6.13;;;4.70;;
19278;SDS011;9773;47.062;15.446;2024-02-15T04:07:26;5.13;;;4.20;;
19278;SDS011;9773;47.062;15.446;2024-02-15T04:09:55;6.50;;;5.10;;
19278;SDS011;9773;47.062;15.446;2024-02-15T04:12:20;5.67;;;4.30;;
19278;SDS011;9773;47.062;15.446;2024-02-15T04:14:46;5.73;;;4.57;;
19278;SDS011;9773;47.062;15.446;2024-02-15T04:17:13;5.50;;;4.77;;
19278;SDS011;9773;47.062;15.446;2024-02-15T04:19:40;8.50;;;4.80;;
19278;SDS011;9773;47.062;15.446;2024-02-15T04:22:06;8.83;;;4.37;;
19278;SDS011;9773;47.062;15.446;2024-02-15T04:24:36;4.77;;;4.30;;
19278;SDS011;9773;47.062;15.446;2024-02-15T04:27:07;10.97;;;4.93;;
19278;SDS011;9773;47.062;15.446;2024-02-15T04:29:36;5.43;;;4.67;;
19278;SDS011;9773;47.062;15.446;2024-02-15T04:32:09;4.53;;;4.13;;
19278;SDS011;9773;47.062;15.446;2024-02-15T04:34:37;7.43;;;4.17;;
19278;SDS011;9773;47.062;15.446;2024-02-15T04:37:04;5.87;;;4.27;;
19278;SDS011;9773;47.062;15.446;2024-02-15T04:39:37;6.97;;;4.17;;
19278;SDS011;9773;47.062;15.446;2024-02-15T04:42:05;10.17;;;4.10;;
19278;SDS011;9773;47.062;15.446;2024-02-15T04:44:52;9.13;;;4.50;;
19278;SDS011;9773;47.062;15.446;2024-02-15T04:47:23;4.93;;;4.13;;
19278;SDS011;9773;47.062;15.446;2024-02-15T04:49:50;5.10;;;4.60;;
19278;SDS011;9773;47.062;15.446;2024-02-15T04:52:17;5.17;;;4.33;;
19278;SDS011;9773;47.062;15.446;2024-02-15T04:54:44;8.13;;;4.70;;
19278;SDS011;9773;47.062;15.446;2024-02-15T04:57:10;5.33;;;4.77;;
19278;SDS011;9773;47.062;15.446;2024-02-15T04:59:36;9.07;;;5.00;;
19278;SDS011;9773;47.062;15.446;2024-02-15T05:02:03;4.70;;;4.20;;
19278;SDS011;9773;47.062;15.446;2024-02-15T05:04:29;7.07;;;5.20;;
19278;SDS011;9773;47.062;15.446;2024-02-15T05:06:54;6.33;;;4.80;;
19278;SDS011;9773;47.062;15.446;2024-02-15T05:09:21;8.00;;;5.30;;
19278;SDS011;9773;47.062;15.446;2024-02-15T05:11:48;6.67;;;4.93;;
19278;SDS011;9773;47.062;15.446;2024-02-15T05:14:14;7.57;;;4.97;;
19278;SDS011;9773;47.062;15.446;2024-02-15T05:16:47;7.93;;;4.90;;
19278;SDS011;9773;47.062;15.446;2024-02-15T05:19:14;9.27;;;5.23;;
19278;SDS011;9773;47.062;15.446;2024-02-15T05:21:41;6.33;;;5.23;;
19278;SDS011;9773;47.062;15.446;2024-02-15T05:24:10;8.43;;;5.10;;
19278;SDS011;9773;47.062;15.446;2024-02-15T05:26:38;5.33;;;4.77;;
19278;SDS011;9773;47.062;15.446;2024-02-15T05:29:08;6.03;;;4.83;;
19278;SDS011;9773;47.062;15.446;2024-02-15T05:31:36;5.23;;;4.73;;
19278;SDS011;9773;47.062;15.446;2024-02-15T05:34:03;5.77;;;4.70;;
19278;SDS011;9773;47.062;15.446;2024-02-15T05:36:30;11.13;;;5.97;;
19278;SDS011;9773;47.062;15.446;2024-02-15T05:38:56;7.27;;;4.53;;
19278;SDS011;9773;47.062;15.446;2024-02-15T05:41:23;8.67;;;4.90;;
19278;SDS011;9773;47.062;15.446;2024-02-15T05:43:49;6.93;;;4.77;;
19278;SDS011;9773;47.062;15.446;2024-02-15T05:46:18;8.10;;;5.37;;
19278;SDS011;9773;47.062;15.446;2024-02-15T05:48:43;7.73;;;5.03;;
19278;SDS011;9773;47.062;15.446;2024-02-15T05:51:09;7.87;;;5.10;;
19278;SDS011;9773;47.062;15.446;2024-02-15T05:53:35;6.43;;;5.00;;
19278;SDS011;9773;47.062;15.446;2024-02-15T05:56:02;8.83;;;5.37;;
19278;SDS011;9773;47.062;15.446;2024-02-15T05:58:39;8.90;;;5.50;;
19278;SDS011;9773;47.062;15.446;2024-02-15T06:01:05;6.77;;;4.53;;
19278;SDS011;9773;47.062;15.446;2024-02-15T06:03:38;6.40;;;4.97;;
19278;SDS011;9773;47.062;15.446;2024-02-15T06:06:05;7.67;;;4.93;;
19278;SDS011;9773;47.062;15.446;2024-02-15T06:08:35;9.90;;;5.30;;
19278;SDS011;9773;47.062;15.446;2024-02-15T06:11:01;5.33;;;4.83;;
19278;SDS011;9773;47.062;15.446;2024-02-15T06:13:29;7.57;;;4.93;;
19278;SDS011;9773;47.062;15.446;2024-02-15T06:15:56;6.60;;;4.43;;
19278;SDS011;9773;47.062;15.446;2024-02-15T06:18:25;7.70;;;4.33;;
19278;SDS011;9773;47.062;15.446;2024-02-15T06:20:54;7.47;;;4.87;;
19278;SDS011;9773;47.062;15.446;2024-02-15T06:23:27;5.77;;;4.67;;
19278;SDS011;9773;47.062;15.446;2024-02-15T06:25:54;5.50;;;4.03;;
19278;SDS011;9773;47.062;15.446;2024-02-15T06:28:24;5.57;;;4.40;;
19278;SDS011;9773;47.062;15.446;2024-02-15T06:31:08;6.13;;;4.50;;
19278;SDS011;9773;47.062;15.446;2024-02-15T06:33:53;5.77;;;4.87;;
19278;SDS011;9773;47.062;15.446;2024-02-15T06:36:48;5.87;;;4.20;;
19278;SDS011;9773;47.062;15.446;2024-02-15T06:39:33;5.00;;;4.50;;
19278;SDS011;9773;47.062;15.446;2024-02-15T06:42:10;4.87;;;4.33;;
19278;SDS011;9773;47.062;15.446;2024-02-15T06:44:45;7.90;;;5.00;;
19278;SDS011;9773;47.062;15.446;2024-02-15T06:47:12;6.30;;;4.57;;
19278;SDS011;9773;47.062;15.446;2024-02-15T06:49:40;8.17;;;5.13;;
19278;SDS011;9773;47.062;15.446;2024-02-15T06:52:09;6.40;;;4.30;;
19278;SDS011;9773;47.062;15.446;2024-02-15T06:54:39;5.27;;;4.53;;
19278;SDS011;9773;47.062;15.446;2024-02-15T06:57:05;9.80;;;4.90;;
19278;SDS011;9773;47.062;15.446;2024-02-15T06:59:32;9.20;;;4.93;;
19278;SDS011;9773;47.062;15.446;2024-02-15T07:01:59;6.27;;;4.80;;
19278;SDS011;9773;47.062;15.446;2024-02-15T07:04:26;9.53;;;5.10;;
19278;SDS011;9773;47.062;15.446;2024-02-15T07:06:52;8.07;;;4.80;;
19278;SDS011;9773;47.062;15.446;2024-02-15T07:09:21;11.73;;;5.47;;
19278;SDS011;9773;47.062;15.446;2024-02-15T07:11:49;9.27;;;4.77;;
19278;SDS011;9773;47.062;15.446;2024-02-15T07:14:15;6.07;;;4.50;;
19278;SDS011;9773;47.062;15.446;2024-02-15T07:16:48;11.00;;;4.80;;
19278;SDS011;9773;47.062;15.446;2024-02-15T07:19:14;14.47;;;5.07;;
19278;SDS011;9773;47.062;15.446;2024-02-15T07:21:41;14.87;;;5.23;;
19278;SDS011;9773;47.062;15.446;2024-02-15T07:24:07;9.20;;;4.50;;
19278;SDS011;9773;47.062;15.446;2024-02-15T07:26:37;6.10;;;4.23;;
19278;SDS011;9773;47.062;15.446;2024-02-15T07:29:03;8.93;;;4.60;;
19278;SDS011;9773;47.062;15.446;2024-02-15T07:31:31;12.77;;;4.87;;
19278;SDS011;9773;47.062;15.446;2024-02-15T07:33:58;12.93;;;6.17;;
19278;SDS011;9773;47.062;15.446;2024-02-15T07:36:24;13.30;;;6.07;;
19278;SDS011;9773;47.062;15.446;2024-02-15T07:38:51;9.77;;;5.97;;
19278;SDS011;9773;47.062;15.446;2024-02-15T07:41:25;11.33;;;6.60;;
19278;SDS011;9773;47.062;15.446;2024-02-15T07:43:52;12.17;;;6.03;;
19278;SDS011;9773;47.062;15.446;2024-02-15T07:46:20;14.37;;;6.50;;
19278;SDS011;9773;47.062;15.446;2024-02-15T07:48:47;15.20;;;6.53;;
19278;SDS011;9773;47.062;15.446;2024-02-15T07:51:14;16.90;;;7.10;;
19278;SDS011;9773;47.062;15.446;2024-02-15T07:53:41;10.43;;;6.43;;
19278;SDS011;9773;47.062;15.446;2024-02-15T07:56:10;11.87;;;6.70;;
19278;SDS011;9773;47.062;15.446;2024-02-15T07:58:39;13.20;;;6.00;;
19278;SDS011;9773;47.062;15.446;2024-02-15T08:01:06;12.53;;;6.43;;
19278;SDS011;9773;47.062;15.446;2024-02-15T08:03:34;13.80;;;6.63;;
19278;SDS011;9773;47.062;15.446;2024-02-15T08:06:01;11.07;;;6.60;;
19278;SDS011;9773;47.062;15.446;2024-02-15T08:08:32;13.77;;;6.50;;
19278;SDS011;9773;47.062;15.446;2024-02-15T08:11:01;11.80;;;6.80;;
19278;SDS011;9773;47.062;15.446;2024-02-15T08:13:27;21.60;;;6.50;;
19278;SDS011;9773;47.062;15.446;2024-02-15T08:15:54;16.50;;;6.80;;
19278;SDS011;9773;47.062;15.446;2024-02-15T08:18:21;12.50;;;7.23;;
19278;SDS011;9773;47.062;15.446;2024-02-15T08:20:47;13.27;;;7.10;;
19278;SDS011;9773;47.062;15.446;2024-02-15T08:23:12;14.33;;;7.00;;
19278;SDS011;9773;47.062;15.446;2024-02-15T08:25:38;18.73;;;7.53;;
19278;SDS011;9773;47.062;15.446;2024-02-15T08:28:07;13.87;;;7.30;;
19278;SDS011;9773;47.062;15.446;2024-02-15T08:30:33;18.73;;;7.47;;
19278;SDS011;9773;47.062;15.446;2024-02-15T08:32:59;11.97;;;7.70;;
19278;SDS011;9773;47.062;15.446;2024-02-15T08:35:25;12.77;;;7.63;;
19278;SDS011;9773;47.062;15.446;2024-02-15T08:37:52;19.07;;;8.97;;
19278;SDS011;9773;47.062;15.446;2024-02-15T08:40:18;21.27;;;7.93;;
19278;SDS011;9773;47.062;15.446;2024-02-15T08:42:49;14.93;;;8.63;;
19278;SDS011;9773;47.062;15.446;2024-02-15T08:45:15;9.73;;;7.27;;
19278;SDS011;9773;47.062;15.446;2024-02-15T08:47:42;13.93;;;6.97;;
19278;SDS011;9773;47.062;15.446;2024-02-15T08:50:09;12.90;;;7.60;;
19278;SDS011;9773;47.062;15.446;2024-02-15T08:52:36;20.33;;;7.40;;
19278;SDS011;9773;47.062;15.446;2024-02-15T08:55:06;15.07;;;7.17;;
19278;SDS011;9773;47.062;15.446;2024-02-15T08:57:34;16.13;;;6.87;;
19278;SDS011;9773;47.062;15.446;2024-02-15T09:00:04;16.83;;;7.57;;
19278;SDS011;9773;47.062;15.446;2024-02-15T09:02:34;20.70;;;7.30;;
19278;SDS011;9773;47.062;15.446;2024-02-15T09:05:00;14.83;;;6.87;;
19278;SDS011;9773;47.062;15.446;2024-02-15T09:07:27;12.87;;;6.57;;
19278;SDS011;9773;47.062;15.446;2024-02-15T09:09:53;22.60;;;7.33;;
19278;SDS011;9773;47.062;15.446;2024-02-15T09:12:20;15.47;;;7.07;;
19278;SDS011;9773;47.062;15.446;2024-02-15T09:14:47;11.07;;;6.20;;
19278;SDS011;9773;47.062;15.446;2024-02-15T09:17:13;20.10;;;6.97;;
19278;SDS011;9773;47.062;15.446;2024-02-15T09:19:39;12.83;;;6.67;;
19278;SDS011;9773;47.062;15.446;2024-02-15T09:22:06;15.43;;;6.77;;
19278;SDS011;9773;47.062;15.446;2024-02-15T09:24:32;18.13;;;7.37;;
19278;SDS011;9773;47.062;15.446;2024-02-15T09:26:59;14.00;;;7.53;;
19278;SDS011;9773;47.062;15.446;2024-02-15T09:29:26;12.43;;;6.43;;
19278;SDS011;9773;47.062;15.446;2024-02-15T09:31:55;12.83;;;7.33;;
19278;SDS011;9773;47.062;15.446;2024-02-15T09:34:24;11.93;;;6.63;;
19278;SDS011;9773;47.062;15.446;2024-02-15T09:36:50;15.57;;;6.83;;
19278;SDS011;9773;47.062;15.446;2024-02-15T09:39:16;14.23;;;7.10;;
19278;SDS011;9773;47.062;15.446;2024-02-15T09:41:43;12.03;;;7.40;;
19278;SDS011;9773;47.062;15.446;2024-02-15T09:44:08;11.50;;;6.77;;
19278;SDS011;9773;47.062;15.446;2024-02-15T09:46:35;16.40;;;7.67;;
19278;SDS011;9773;47.062;15.446;2024-02-15T09:49:06;13.17;;;7.03;;
19278;SDS011;9773;47.062;15.446;2024-02-15T09:51:33;9.80;;;6.83;;
19278;SDS011;9773;47.062;15.446;2024-02-15T09:53:58;11.27;;;7.13;;
19278;SDS011;9773;47.062;15.446;2024-02-15T09:56:26;11.63;;;6.50;;
19278;SDS011;9773;47.062;15.446;2024-02-15T09:58:55;14.13;;;6.87;;
19278;SDS011;9773;47.062;15.446;2024-02-15T10:01:24;15.10;;;7.13;;
19278;SDS011;9773;47.062;15.446;2024-02-15T10:03:52;11.87;;;7.27;;
19278;SDS011;9773;47.062;15.446;2024-02-15T10:06:19;14.63;;;6.97;;
19278;SDS011;9773;47.062;15.446;2024-02-15T10:08:45;11.50;;;7.17;;
19278;SDS011;9773;47.062;15.446;2024-02-15T10:11:12;12.03;;;6.47;;
19278;SDS011;9773;47.062;15.446;2024-02-15T10:13:38;11.57;;;7.37;;
19278;SDS011;9773;47.062;15.446;2024-02-15T10:16:18;9.50;;;6.70;;
19278;SDS011;9773;47.062;15.446;2024-02-15T10:18:44;10.83;;;7.00;;
19278;SDS011;9773;47.062;15.446;2024-02-15T10:21:25;13.93;;;6.70;;
19278;SDS011;9773;47.062;15.446;2024-02-15T10:24:13;13.30;;;7.23;;
19278;SDS011;9773;47.062;15.446;2024-02-15T10:26:38;18.43;;;7.80;;
19278;SDS011;9773;47.062;15.446;2024-02-15T10:31:39;16.30;;;7.63;;
19278;SDS011;9773;47.062;15.446;2024-02-15T10:34:17;15.60;;;7.00;;
19278;SDS011;9773;47.062;15.446;2024-02-15T10:36:44;13.83;;;7.40;;
19278;SDS011;9773;47.062;15.446;2024-02-15T10:39:14;15.27;;;7.03;;
19278;SDS011;9773;47.062;15.446;2024-02-15T10:41:53;11.00;;;7.47;;
19278;SDS011;9773;47.062;15.446;2024-02-15T10:46:47;12.40;;;7.37;;
19278;SDS011;9773;47.062;15.446;2024-02-15T10:49:32;12.03;;;7.00;;
19278;SDS011;9773;47.062;15.446;2024-02-15T10:52:06;11.10;;;7.20;;
19278;SDS011;9773;47.062;15.446;2024-02-15T10:57:25;17.50;;;7.50;;
19278;SDS011;9773;47.062;15.446;2024-02-15T10:59:56;10.87;;;6.67;;
19278;SDS011;9773;47.062;15.446;2024-02-15T11:03:00;9.47;;;6.60;;
19278;SDS011;9773;47.062;15.446;2024-02-15T11:05:37;9.73;;;6.67;;
19278;SDS011;9773;47.062;15.446;2024-02-15T11:08:08;12.87;;;6.63;;
19278;SDS011;9773;47.062;15.446;2024-02-15T11:10:35;7.87;;;5.70;;
19278;SDS011;9773;47.062;15.446;2024-02-15T11:13:09;9.20;;;5.70;;
19278;SDS011;9773;47.062;15.446;2024-02-15T11:15:45;8.43;;;4.93;;
19278;SDS011;9773;47.062;15.446;2024-02-15T11:19:02;11.53;;;5.60;;
19278;SDS011;9773;47.062;15.446;2024-02-15T11:21:11;15.33;;;5.50;;
19278;SDS011;9773;47.062;15.446;2024-02-15T11:23:37;10.47;;;5.00;;
19278;SDS011;9773;47.062;15.446;2024-02-15T11:26:03;10.80;;;4.97;;
19278;SDS011;9773;47.062;15.446;2024-02-15T11:28:36;10.10;;;4.93;;
19278;SDS011;9773;47.062;15.446;2024-02-15T11:31:06;10.10;;;4.73;;
19278;SDS011;9773;47.062;15.446;2024-02-15T11:33:33;8.13;;;4.80;;
19278;SDS011;9773;47.062;15.446;2024-02-15T11:36:10;6.50;;;4.73;;
19278;SDS011;9773;47.062;15.446;2024-02-15T11:38:39;6.03;;;4.53;;
19278;SDS011;9773;47.062;15.446;2024-02-15T11:41:07;5.83;;;5.03;;
19278;SDS011;9773;47.062;15.446;2024-02-15T11:43:52;6.97;;;4.70;;
19278;SDS011;9773;47.062;15.446;2024-02-15T11:46:22;5.10;;;4.43;;
19278;SDS011;9773;47.062;15.446;2024-02-15T11:49:01;5.53;;;4.27;;
19278;SDS011;9773;47.062;15.446;2024-02-15T11:51:36;7.07;;;4.50;;
19278;SDS011;9773;47.062;15.446;2024-02-15T11:54:09;5.67;;;4.27;;
19278;SDS011;9773;47.062;15.446;2024-02-15T11:56:58;8.30;;;5.43;;
19278;SDS011;9773;47.062;15.446;2024-02-15T11:59:39;6.93;;;4.43;;
19278;SDS011;9773;47.062;15.446;2024-02-15T12:02:31;10.70;;;4.80;;
19278;SDS011;9773;47.062;15.446;2024-02-15T12:05:16;6.57;;;4.13;;
19278;SDS011;9773;47.062;15.446;2024-02-15T12:08:01;5.27;;;4.00;;
19278;SDS011;9773;47.062;15.446;2024-02-15T12:10:56;8.30;;;4.10;;
19278;SDS011;9773;47.062;15.446;2024-02-15T12:13:43;6.40;;;4.10;;
19278;SDS011;9773;47.062;15.446;2024-02-15T12:16:27;9.57;;;4.30;;
19278;SDS011;9773;47.062;15.446;2024-02-15T12:19:11;5.83;;;4.47;;
19278;SDS011;9773;47.062;15.446;2024-02-15T12:21:37;4.93;;;3.83;;
19278;SDS011;9773;47.062;15.446;2024-02-15T12:24:06;4.43;;;4.03;;
19278;SDS011;9773;47.062;15.446;2024-02-15T12:26:32;5.93;;;3.97;;
19278;SDS011;9773;47.062;15.446;2024-02-15T12:28:59;5.50;;;4.07;;
19278;SDS011;9773;47.062;15.446;2024-02-15T12:31:26;6.60;;;3.80;;
19278;SDS011;9773;47.062;15.446;2024-02-15T12:33:59;4.63;;;3.70;;
19278;SDS011;9773;47.062;15.446;2024-02-15T12:36:35;4.90;;;4.13;;
19278;SDS011;9773;47.062;15.446;2024-02-15T12:39:03;6.97;;;3.93;;
19278;SDS011;9773;47.062;15.446;2024-02-15T12:41:49;6.67;;;4.80;;
19278;SDS011;9773;47.062;15.446;2024-02-15T12:44:18;3.40;;;3.13;;
19278;SDS011;9773;47.062;15.446;2024-02-15T12:46:54;6.53;;;3.13;;
19278;SDS011;9773;47.062;15.446;2024-02-15T12:51:51;6.27;;;3.70;;
19278;SDS011;9773;47.062;15.446;2024-02-15T12:54:21;7.93;;;3.17;;
19278;SDS011;9773;47.062;15.446;2024-02-15T12:56:47;3.70;;;3.40;;
19278;SDS011;9773;47.062;15.446;2024-02-15T12:59:19;7.33;;;3.57;;
19278;SDS011;9773;47.062;15.446;2024-02-15T13:01:46;7.40;;;3.27;;
19278;SDS011;9773;47.062;15.446;2024-02-15T13:04:25;4.30;;;3.90;;
19278;SDS011;9773;47.062;15.446;2024-02-15T13:06:51;3.77;;;3.20;;
19278;SDS011;9773;47.062;15.446;2024-02-15T13:09:17;5.30;;;3.40;;
19278;SDS011;9773;47.062;15.446;2024-02-15T13:11:44;5.50;;;3.33;;
19278;SDS011;9773;47.062;15.446;2024-02-15T13:14:12;3.30;;;3.00;;
19278;SDS011;9773;47.062;15.446;2024-02-15T13:16:38;3.73;;;2.83;;
19278;SDS011;9773;47.062;15.446;2024-02-15T13:19:04;4.10;;;2.73;;
19278;SDS011;9773;47.062;15.446;2024-02-15T13:21:32;7.00;;;3.50;;
19278;SDS011;9773;47.062;15.446;2024-02-15T13:23:59;3.10;;;2.90;;
19278;SDS011;9773;47.062;15.446;2024-02-15T13:26:32;3.03;;;2.70;;
19278;SDS011;9773;47.062;15.446;2024-02-15T13:28:59;3.50;;;2.60;;
19278;SDS011;9773;47.062;15.446;2024-02-15T13:31:25;3.73;;;2.80;;
19278;SDS011;9773;47.062;15.446;2024-02-15T13:33:52;2.80;;;2.57;;
19278;SDS011;9773;47.062;15.446;2024-02-15T13:36:18;2.57;;;2.47;;
19278;SDS011;9773;47.062;15.446;2024-02-15T13:38:45;5.33;;;2.80;;
19278;SDS011;9773;47.062;15.446;2024-02-15T13:41:12;3.33;;;2.63;;
19278;SDS011;9773;47.062;15.446;2024-02-15T13:43:38;4.90;;;2.90;;
19278;SDS011;9773;47.062;15.446;2024-02-15T13:46:06;2.63;;;2.43;;
19278;SDS011;9773;47.062;15.446;2024-02-15T13:48:32;3.50;;;2.67;;
19278;SDS011;9773;47.062;15.446;2024-02-15T13:50:57;4.43;;;2.63;;
19278;SDS011;9773;47.062;15.446;2024-02-15T13:53:23;4.30;;;2.93;;
19278;SDS011;9773;47.062;15.446;2024-02-15T13:55:50;4.23;;;2.57;;
19278;SDS011;9773;47.062;15.446;2024-02-15T13:58:17;2.53;;;2.33;;
19278;SDS011;9773;47.062;15.446;2024-02-15T14:00:43;3.70;;;2.70;;
19278;SDS011;9773;47.062;15.446;2024-02-15T14:03:10;5.00;;;2.77;;
19278;SDS011;9773;47.062;15.446;2024-02-15T14:05:36;3.50;;;2.50;;
19278;SDS011;9773;47.062;15.446;2024-02-15T14:08:06;2.70;;;2.20;;
19278;SDS011;9773;47.062;15.446;2024-02-15T14:10:34;4.20;;;2.30;;
19278;SDS011;9773;47.062;15.446;2024-02-15T14:13:01;3.17;;;2.07;;
19278;SDS011;9773;47.062;15.446;2024-02-15T14:15:29;2.60;;;2.40;;
19278;SDS011;9773;47.062;15.446;2024-02-15T14:17:54;2.77;;;2.50;;
19278;SDS011;9773;47.062;15.446;2024-02-15T14:20:23;2.80;;;2.47;;
19278;SDS011;9773;47.062;15.446;2024-02-15T14:22:50;2.63;;;2.43;;
19278;SDS011;9773;47.062;15.446;2024-02-15T14:25:23;3.17;;;2.70;;
19278;SDS011;9773;47.062;15.446;2024-02-15T14:27:50;2.77;;;2.50;;
19278;SDS011;9773;47.062;15.446;2024-02-15T14:30:18;2.67;;;2.47;;
19278;SDS011;9773;47.062;15.446;2024-02-15T14:33:02;4.17;;;2.23;;
19278;SDS011;9773;47.062;15.446;2024-02-15T14:35:36;2.27;;;2.07;;
19278;SDS011;9773;47.062;15.446;2024-02-15T14:38:05;3.77;;;2.87;;
19278;SDS011;9773;47.062;15.446;2024-02-15T14:40:36;2.50;;;2.30;;
19278;SDS011;9773;47.062;15.446;2024-02-15T14:43:04;5.43;;;2.43;;
19278;SDS011;9773;47.062;15.446;2024-02-15T14:45:31;5.30;;;2.53;;
19278;SDS011;9773;47.062;15.446;2024-02-15T14:47:58;2.53;;;2.33;;
19278;SDS011;9773;47.062;15.446;2024-02-15T14:50:27;3.07;;;2.70;;
19278;SDS011;9773;47.062;15.446;2024-02-15T14:52:53;3.27;;;2.30;;
19278;SDS011;9773;47.062;15.446;2024-02-15T14:55:20;3.70;;;2.37;;
19278;SDS011;9773;47.062;15.446;2024-02-15T14:57:46;2.50;;;2.23;;
19278;SDS011;9773;47.062;15.446;2024-02-15T15:00:12;2.27;;;2.17;;
19278;SDS011;9773;47.062;15.446;2024-02-15T15:02:41;1.87;;;1.77;;
19278;SDS011;9773;47.062;15.446;2024-02-15T15:05:08;2.57;;;2.37;;